sensor_id;sensor_type;location;lat;lon;timestamp;P1;durP1;ratioP1;P2;durP2;ratioP2
18084;SDS011;9169;44.492;11.372;2023-06-14T00:01:22;33.57;;;3.40;;
18084;SDS011;9169;44.492;11.372;2023-06-14T00:03:52;31.30;;;3.80;;
18084;SDS011;9169;44.492;11.372;2023-06-14T00:06:22;33.10;;;3.50;;
18084;SDS011;9169;44.492;11.372;2023-06-14T00:08:52;27.43;;;3.13;;
18084;SDS011;9169;44.492;11.372;2023-06-14T00:11:21;33.80;;;3.80;;
18084;SDS011;9169;44.492;11.372;2023-06-14T00:13:50;29.80;;;3.33;;
18084;SDS011;9169;44.492;11.372;2023-06-14T00:16:20;29.57;;;3.60;;
18084;SDS011;9169;44.492;11.372;2023-06-14T00:18:49;30.60;;;3.70;;
18084;SDS011;9169;44.492;11.372;2023-06-14T00:21:21;29.80;;;3.50;;
18084;SDS011;9169;44.492;11.372;2023-06-14T00:23:49;33.30;;;3.60;;
18084;SDS011;9169;44.492;11.372;2023-06-14T00:26:18;33.70;;;3.83;;
18084;SDS011;9169;44.492;11.372;2023-06-14T00:28:47;30.70;;;4.17;;
18084;SDS011;9169;44.492;11.372;2023-06-14T00:31:16;30.80;;;4.20;;
18084;SDS011;9169;44.492;11.372;2023-06-14T00:33:46;31.77;;;3.63;;
18084;SDS011;9169;44.492;11.372;2023-06-14T00:36:15;33.83;;;3.50;;
18084;SDS011;9169;44.492;11.372;2023-06-14T00:38:43;29.00;;;3.57;;
18084;SDS011;9169;44.492;11.372;2023-06-14T00:41:12;27.53;;;3.23;;
18084;SDS011;9169;44.492;11.372;2023-06-14T00:43:41;30.80;;;3.37;;
18084;SDS011;9169;44.492;11.372;2023-06-14T00:46:10;28.23;;;3.53;;
18084;SDS011;9169;44.492;11.372;2023-06-14T00:48:39;29.67;;;3.27;;
18084;SDS011;9169;44.492;11.372;2023-06-14T00:51:09;26.93;;;3.00;;
18084;SDS011;9169;44.492;11.372;2023-06-14T00:53:38;29.90;;;3.60;;
18084;SDS011;9169;44.492;11.372;2023-06-14T00:56:07;30.63;;;3.30;;
18084;SDS011;9169;44.492;11.372;2023-06-14T00:58:36;31.50;;;3.30;;
18084;SDS011;9169;44.492;11.372;2023-06-14T01:01:05;27.70;;;3.37;;
18084;SDS011;9169;44.492;11.372;2023-06-14T01:03:34;29.83;;;3.30;;
18084;SDS011;9169;44.492;11.372;2023-06-14T01:06:05;35.07;;;3.30;;
18084;SDS011;9169;44.492;11.372;2023-06-14T01:08:57;27.63;;;3.23;;
18084;SDS011;9169;44.492;11.372;2023-06-14T01:11:37;28.27;;;3.30;;
18084;SDS011;9169;44.492;11.372;2023-06-14T01:14:13;28.97;;;3.30;;
18084;SDS011;9169;44.492;11.372;2023-06-14T01:16:45;28.30;;;3.33;;
18084;SDS011;9169;44.492;11.372;2023-06-14T01:19:20;31.57;;;3.37;;
18084;SDS011;9169;44.492;11.372;2023-06-14T01:21:53;28.97;;;3.57;;
18084;SDS011;9169;44.492;11.372;2023-06-14T01:24:24;27.43;;;3.17;;
18084;SDS011;9169;44.492;11.372;2023-06-14T01:26:59;28.53;;;3.30;;
18084;SDS011;9169;44.492;11.372;2023-06-14T01:29:28;27.23;;;3.10;;
18084;SDS011;9169;44.492;11.372;2023-06-14T01:31:59;27.70;;;3.10;;
18084;SDS011;9169;44.492;11.372;2023-06-14T01:34:30;29.47;;;2.87;;
18084;SDS011;9169;44.492;11.372;2023-06-14T01:37:00;28.07;;;3.30;;
18084;SDS011;9169;44.492;11.372;2023-06-14T01:39:32;30.13;;;3.30;;
18084;SDS011;9169;44.492;11.372;2023-06-14T01:42:02;28.00;;;2.90;;
18084;SDS011;9169;44.492;11.372;2023-06-14T01:44:34;27.53;;;2.80;;
18084;SDS011;9169;44.492;11.372;2023-06-14T01:47:03;29.30;;;3.67;;
18084;SDS011;9169;44.492;11.372;2023-06-14T01:49:33;28.57;;;3.17;;
18084;SDS011;9169;44.492;11.372;2023-06-14T01:52:02;27.70;;;2.83;;
18084;SDS011;9169;44.492;11.372;2023-06-14T01:54:34;29.47;;;3.40;;
18084;SDS011;9169;44.492;11.372;2023-06-14T01:57:04;28.73;;;3.63;;
18084;SDS011;9169;44.492;11.372;2023-06-14T01:59:34;38.23;;;4.00;;
18084;SDS011;9169;44.492;11.372;2023-06-14T02:02:03;29.57;;;3.73;;
18084;SDS011;9169;44.492;11.372;2023-06-14T02:04:32;32.00;;;3.40;;
18084;SDS011;9169;44.492;11.372;2023-06-14T02:07:01;28.23;;;3.10;;
18084;SDS011;9169;44.492;11.372;2023-06-14T02:09:30;29.30;;;3.07;;
18084;SDS011;9169;44.492;11.372;2023-06-14T02:12:00;31.30;;;2.77;;
18084;SDS011;9169;44.492;11.372;2023-06-14T02:14:29;30.50;;;3.20;;
18084;SDS011;9169;44.492;11.372;2023-06-14T02:16:57;28.53;;;3.07;;
18084;SDS011;9169;44.492;11.372;2023-06-14T02:19:27;27.50;;;3.27;;
18084;SDS011;9169;44.492;11.372;2023-06-14T02:21:56;29.53;;;3.47;;
18084;SDS011;9169;44.492;11.372;2023-06-14T02:24:25;35.97;;;3.37;;
18084;SDS011;9169;44.492;11.372;2023-06-14T02:26:59;28.47;;;2.73;;
18084;SDS011;9169;44.492;11.372;2023-06-14T02:29:28;29.07;;;3.00;;
18084;SDS011;9169;44.492;11.372;2023-06-14T02:31:57;27.87;;;2.90;;
18084;SDS011;9169;44.492;11.372;2023-06-14T02:34:25;28.73;;;3.30;;
18084;SDS011;9169;44.492;11.372;2023-06-14T02:36:55;28.50;;;3.10;;
18084;SDS011;9169;44.492;11.372;2023-06-14T02:39:23;31.03;;;3.17;;
18084;SDS011;9169;44.492;11.372;2023-06-14T02:41:53;30.87;;;3.47;;
18084;SDS011;9169;44.492;11.372;2023-06-14T02:44:25;31.17;;;3.17;;
18084;SDS011;9169;44.492;11.372;2023-06-14T02:46:54;30.67;;;3.10;;
18084;SDS011;9169;44.492;11.372;2023-06-14T02:49:23;29.97;;;3.10;;
18084;SDS011;9169;44.492;11.372;2023-06-14T02:51:51;29.07;;;3.33;;
18084;SDS011;9169;44.492;11.372;2023-06-14T02:54:21;30.97;;;3.57;;
18084;SDS011;9169;44.492;11.372;2023-06-14T02:56:50;31.43;;;3.20;;
18084;SDS011;9169;44.492;11.372;2023-06-14T02:59:19;33.37;;;3.37;;
18084;SDS011;9169;44.492;11.372;2023-06-14T03:01:55;29.93;;;3.40;;
18084;SDS011;9169;44.492;11.372;2023-06-14T03:04:24;29.60;;;3.03;;
18084;SDS011;9169;44.492;11.372;2023-06-14T03:06:53;29.00;;;3.07;;
18084;SDS011;9169;44.492;11.372;2023-06-14T03:09:23;29.37;;;3.40;;
18084;SDS011;9169;44.492;11.372;2023-06-14T03:11:52;29.70;;;3.67;;
18084;SDS011;9169;44.492;11.372;2023-06-14T03:14:21;30.13;;;3.57;;
18084;SDS011;9169;44.492;11.372;2023-06-14T03:16:52;30.10;;;3.40;;
18084;SDS011;9169;44.492;11.372;2023-06-14T03:19:25;32.97;;;3.90;;
18084;SDS011;9169;44.492;11.372;2023-06-14T03:21:55;30.90;;;3.67;;
18084;SDS011;9169;44.492;11.372;2023-06-14T03:24:28;32.60;;;3.43;;
18084;SDS011;9169;44.492;11.372;2023-06-14T03:26:59;30.30;;;3.00;;
18084;SDS011;9169;44.492;11.372;2023-06-14T03:29:28;29.67;;;3.30;;
18084;SDS011;9169;44.492;11.372;2023-06-14T03:31:58;29.63;;;3.23;;
18084;SDS011;9169;44.492;11.372;2023-06-14T03:34:42;35.83;;;3.97;;
18084;SDS011;9169;44.492;11.372;2023-06-14T03:37:18;36.70;;;3.50;;
18084;SDS011;9169;44.492;11.372;2023-06-14T03:39:48;31.00;;;3.47;;
18084;SDS011;9169;44.492;11.372;2023-06-14T03:42:20;35.23;;;3.40;;
18084;SDS011;9169;44.492;11.372;2023-06-14T03:44:53;32.50;;;3.77;;
18084;SDS011;9169;44.492;11.372;2023-06-14T03:47:23;33.77;;;3.30;;
18084;SDS011;9169;44.492;11.372;2023-06-14T03:49:53;32.03;;;3.63;;
18084;SDS011;9169;44.492;11.372;2023-06-14T03:52:22;30.60;;;3.40;;
18084;SDS011;9169;44.492;11.372;2023-06-14T03:54:52;30.30;;;2.97;;
18084;SDS011;9169;44.492;11.372;2023-06-14T03:57:23;31.63;;;3.03;;
18084;SDS011;9169;44.492;11.372;2023-06-14T03:59:54;33.03;;;3.30;;
18084;SDS011;9169;44.492;11.372;2023-06-14T04:02:23;32.13;;;3.20;;
18084;SDS011;9169;44.492;11.372;2023-06-14T04:04:54;36.83;;;3.27;;
18084;SDS011;9169;44.492;11.372;2023-06-14T04:07:23;30.97;;;3.07;;
18084;SDS011;9169;44.492;11.372;2023-06-14T04:09:55;31.77;;;3.00;;
18084;SDS011;9169;44.492;11.372;2023-06-14T04:12:24;37.20;;;3.60;;
18084;SDS011;9169;44.492;11.372;2023-06-14T04:14:52;31.70;;;3.33;;
18084;SDS011;9169;44.492;11.372;2023-06-14T04:17:22;32.17;;;3.23;;
18084;SDS011;9169;44.492;11.372;2023-06-14T04:19:51;36.93;;;3.83;;
18084;SDS011;9169;44.492;11.372;2023-06-14T04:22:22;32.03;;;3.53;;
18084;SDS011;9169;44.492;11.372;2023-06-14T04:24:50;32.70;;;3.60;;
18084;SDS011;9169;44.492;11.372;2023-06-14T04:27:23;31.87;;;3.30;;
18084;SDS011;9169;44.492;11.372;2023-06-14T04:29:53;31.13;;;2.80;;
18084;SDS011;9169;44.492;11.372;2023-06-14T04:32:26;29.97;;;3.33;;
18084;SDS011;9169;44.492;11.372;2023-06-14T04:34:56;34.73;;;3.50;;
18084;SDS011;9169;44.492;11.372;2023-06-14T04:37:27;29.97;;;3.20;;
18084;SDS011;9169;44.492;11.372;2023-06-14T04:39:58;35.50;;;3.90;;
18084;SDS011;9169;44.492;11.372;2023-06-14T04:42:29;30.73;;;3.20;;
18084;SDS011;9169;44.492;11.372;2023-06-14T04:45:00;30.00;;;3.37;;
18084;SDS011;9169;44.492;11.372;2023-06-14T04:47:29;30.83;;;3.10;;
18084;SDS011;9169;44.492;11.372;2023-06-14T04:49:59;29.70;;;3.30;;
18084;SDS011;9169;44.492;11.372;2023-06-14T04:52:31;30.87;;;2.97;;
18084;SDS011;9169;44.492;11.372;2023-06-14T04:55:04;30.20;;;3.13;;
18084;SDS011;9169;44.492;11.372;2023-06-14T04:57:33;27.77;;;3.10;;
18084;SDS011;9169;44.492;11.372;2023-06-14T05:00:03;30.33;;;3.10;;
18084;SDS011;9169;44.492;11.372;2023-06-14T05:02:33;30.00;;;2.83;;
18084;SDS011;9169;44.492;11.372;2023-06-14T05:05:02;30.47;;;2.80;;
18084;SDS011;9169;44.492;11.372;2023-06-14T05:07:35;24.57;;;3.00;;
18084;SDS011;9169;44.492;11.372;2023-06-14T05:10:05;25.67;;;3.33;;
18084;SDS011;9169;44.492;11.372;2023-06-14T05:12:35;27.87;;;3.07;;
18084;SDS011;9169;44.492;11.372;2023-06-14T05:15:06;28.53;;;3.60;;
18084;SDS011;9169;44.492;11.372;2023-06-14T05:17:37;25.50;;;3.30;;
18084;SDS011;9169;44.492;11.372;2023-06-14T05:20:07;27.77;;;3.40;;
18084;SDS011;9169;44.492;11.372;2023-06-14T05:22:39;24.10;;;2.93;;
18084;SDS011;9169;44.492;11.372;2023-06-14T05:25:08;27.70;;;3.90;;
18084;SDS011;9169;44.492;11.372;2023-06-14T05:27:37;24.30;;;3.80;;
18084;SDS011;9169;44.492;11.372;2023-06-14T05:30:08;23.40;;;3.63;;
18084;SDS011;9169;44.492;11.372;2023-06-14T05:32:38;28.70;;;3.30;;
18084;SDS011;9169;44.492;11.372;2023-06-14T05:35:07;23.97;;;3.53;;
18084;SDS011;9169;44.492;11.372;2023-06-14T05:37:37;30.13;;;3.37;;
18084;SDS011;9169;44.492;11.372;2023-06-14T05:40:08;20.87;;;3.23;;
18084;SDS011;9169;44.492;11.372;2023-06-14T05:42:38;19.37;;;2.90;;
18084;SDS011;9169;44.492;11.372;2023-06-14T05:45:07;18.43;;;2.60;;
18084;SDS011;9169;44.492;11.372;2023-06-14T05:47:36;21.30;;;2.90;;
18084;SDS011;9169;44.492;11.372;2023-06-14T05:50:05;20.60;;;2.60;;
18084;SDS011;9169;44.492;11.372;2023-06-14T05:52:34;21.90;;;2.90;;
18084;SDS011;9169;44.492;11.372;2023-06-14T05:55:04;20.20;;;2.83;;
18084;SDS011;9169;44.492;11.372;2023-06-14T05:57:40;19.10;;;2.83;;
18084;SDS011;9169;44.492;11.372;2023-06-14T06:00:09;22.80;;;2.80;;
18084;SDS011;9169;44.492;11.372;2023-06-14T06:02:42;27.60;;;2.90;;
18084;SDS011;9169;44.492;11.372;2023-06-14T06:05:11;20.03;;;2.70;;
18084;SDS011;9169;44.492;11.372;2023-06-14T06:07:40;16.80;;;2.63;;
18084;SDS011;9169;44.492;11.372;2023-06-14T06:10:11;19.10;;;3.00;;
18084;SDS011;9169;44.492;11.372;2023-06-14T06:12:42;15.20;;;2.67;;
18084;SDS011;9169;44.492;11.372;2023-06-14T06:15:10;14.87;;;3.00;;
18084;SDS011;9169;44.492;11.372;2023-06-14T06:17:40;16.17;;;3.03;;
18084;SDS011;9169;44.492;11.372;2023-06-14T06:20:20;13.17;;;2.33;;
18084;SDS011;9169;44.492;11.372;2023-06-14T06:22:54;14.33;;;2.80;;
18084;SDS011;9169;44.492;11.372;2023-06-14T06:25:23;19.30;;;2.90;;
18084;SDS011;9169;44.492;11.372;2023-06-14T06:27:54;13.97;;;2.90;;
18084;SDS011;9169;44.492;11.372;2023-06-14T06:30:24;14.07;;;2.73;;
18084;SDS011;9169;44.492;11.372;2023-06-14T06:32:53;14.60;;;2.57;;
18084;SDS011;9169;44.492;11.372;2023-06-14T06:35:22;19.93;;;3.70;;
18084;SDS011;9169;44.492;11.372;2023-06-14T06:37:52;13.63;;;2.47;;
18084;SDS011;9169;44.492;11.372;2023-06-14T06:40:22;30.07;;;3.50;;
18084;SDS011;9169;44.492;11.372;2023-06-14T06:42:51;17.83;;;3.63;;
18084;SDS011;9169;44.492;11.372;2023-06-14T06:45:21;16.93;;;2.90;;
18084;SDS011;9169;44.492;11.372;2023-06-14T06:47:51;12.90;;;2.83;;
18084;SDS011;9169;44.492;11.372;2023-06-14T06:50:20;13.37;;;2.93;;
18084;SDS011;9169;44.492;11.372;2023-06-14T06:52:51;14.10;;;3.20;;
18084;SDS011;9169;44.492;11.372;2023-06-14T06:55:21;12.47;;;2.90;;
18084;SDS011;9169;44.492;11.372;2023-06-14T06:57:49;14.73;;;2.90;;
18084;SDS011;9169;44.492;11.372;2023-06-14T07:00:19;12.50;;;2.67;;
18084;SDS011;9169;44.492;11.372;2023-06-14T07:02:50;13.40;;;2.70;;
18084;SDS011;9169;44.492;11.372;2023-06-14T07:05:19;15.80;;;3.23;;
18084;SDS011;9169;44.492;11.372;2023-06-14T07:07:48;17.63;;;2.87;;
18084;SDS011;9169;44.492;11.372;2023-06-14T07:10:17;11.60;;;2.90;;
18084;SDS011;9169;44.492;11.372;2023-06-14T07:12:46;18.37;;;3.20;;
18084;SDS011;9169;44.492;11.372;2023-06-14T07:15:15;14.50;;;3.20;;
18084;SDS011;9169;44.492;11.372;2023-06-14T07:17:45;15.80;;;3.30;;
18084;SDS011;9169;44.492;11.372;2023-06-14T07:20:14;15.40;;;3.00;;
18084;SDS011;9169;44.492;11.372;2023-06-14T07:22:43;20.40;;;3.30;;
18084;SDS011;9169;44.492;11.372;2023-06-14T07:25:12;15.37;;;3.57;;
18084;SDS011;9169;44.492;11.372;2023-06-14T07:27:42;15.80;;;4.13;;
18084;SDS011;9169;44.492;11.372;2023-06-14T07:30:11;14.60;;;3.83;;
18084;SDS011;9169;44.492;11.372;2023-06-14T07:32:40;13.90;;;3.57;;
18084;SDS011;9169;44.492;11.372;2023-06-14T07:35:10;18.93;;;4.53;;
18084;SDS011;9169;44.492;11.372;2023-06-14T07:37:39;18.57;;;4.17;;
18084;SDS011;9169;44.492;11.372;2023-06-14T07:40:08;17.23;;;4.10;;
18084;SDS011;9169;44.492;11.372;2023-06-14T07:42:38;16.90;;;4.47;;
18084;SDS011;9169;44.492;11.372;2023-06-14T07:45:07;24.20;;;4.57;;
18084;SDS011;9169;44.492;11.372;2023-06-14T07:47:36;24.80;;;11.53;;
18084;SDS011;9169;44.492;11.372;2023-06-14T07:50:05;20.70;;;4.73;;
18084;SDS011;9169;44.492;11.372;2023-06-14T07:52:37;18.93;;;5.37;;
18084;SDS011;9169;44.492;11.372;2023-06-14T07:55:07;18.90;;;4.90;;
18084;SDS011;9169;44.492;11.372;2023-06-14T07:57:36;17.37;;;4.80;;
18084;SDS011;9169;44.492;11.372;2023-06-14T08:00:05;14.80;;;4.80;;
18084;SDS011;9169;44.492;11.372;2023-06-14T08:02:38;18.23;;;4.70;;
18084;SDS011;9169;44.492;11.372;2023-06-14T08:05:07;17.10;;;4.90;;
18084;SDS011;9169;44.492;11.372;2023-06-14T08:07:40;14.63;;;4.73;;
18084;SDS011;9169;44.492;11.372;2023-06-14T08:10:09;17.63;;;5.10;;
18084;SDS011;9169;44.492;11.372;2023-06-14T08:12:38;13.57;;;4.77;;
18084;SDS011;9169;44.492;11.372;2023-06-14T08:15:06;13.90;;;4.73;;
18084;SDS011;9169;44.492;11.372;2023-06-14T08:17:39;16.00;;;4.87;;
18084;SDS011;9169;44.492;11.372;2023-06-14T08:20:08;18.80;;;4.93;;
18084;SDS011;9169;44.492;11.372;2023-06-14T08:22:42;14.30;;;4.87;;
18084;SDS011;9169;44.492;11.372;2023-06-14T08:25:13;15.43;;;5.67;;
18084;SDS011;9169;44.492;11.372;2023-06-14T08:27:44;14.00;;;4.17;;
18084;SDS011;9169;44.492;11.372;2023-06-14T08:30:13;11.70;;;4.47;;
18084;SDS011;9169;44.492;11.372;2023-06-14T08:32:44;16.67;;;4.90;;
18084;SDS011;9169;44.492;11.372;2023-06-14T08:35:14;12.63;;;4.97;;
18084;SDS011;9169;44.492;11.372;2023-06-14T08:37:44;12.57;;;4.60;;
18084;SDS011;9169;44.492;11.372;2023-06-14T08:40:19;11.67;;;4.47;;
18084;SDS011;9169;44.492;11.372;2023-06-14T08:42:50;15.13;;;5.57;;
18084;SDS011;9169;44.492;11.372;2023-06-14T08:45:20;11.20;;;5.07;;
18084;SDS011;9169;44.492;11.372;2023-06-14T08:47:51;14.03;;;5.93;;
18084;SDS011;9169;44.492;11.372;2023-06-14T08:50:25;12.10;;;4.40;;
18084;SDS011;9169;44.492;11.372;2023-06-14T08:52:58;10.90;;;4.00;;
18084;SDS011;9169;44.492;11.372;2023-06-14T08:55:29;19.53;;;4.43;;
18084;SDS011;9169;44.492;11.372;2023-06-14T08:57:59;11.83;;;4.20;;
18084;SDS011;9169;44.492;11.372;2023-06-14T09:00:30;13.50;;;4.03;;
18084;SDS011;9169;44.492;11.372;2023-06-14T09:02:59;8.70;;;3.83;;
18084;SDS011;9169;44.492;11.372;2023-06-14T09:05:29;7.50;;;3.60;;
18084;SDS011;9169;44.492;11.372;2023-06-14T09:07:59;9.30;;;3.70;;
18084;SDS011;9169;44.492;11.372;2023-06-14T09:10:31;9.33;;;3.97;;
18084;SDS011;9169;44.492;11.372;2023-06-14T09:13:01;10.13;;;4.40;;
18084;SDS011;9169;44.492;11.372;2023-06-14T09:15:30;10.83;;;4.00;;
18084;SDS011;9169;44.492;11.372;2023-06-14T09:18:00;7.90;;;3.50;;
18084;SDS011;9169;44.492;11.372;2023-06-14T09:20:33;8.53;;;4.13;;
18084;SDS011;9169;44.492;11.372;2023-06-14T09:23:04;10.07;;;5.00;;
18084;SDS011;9169;44.492;11.372;2023-06-14T09:25:41;7.70;;;4.50;;
18084;SDS011;9169;44.492;11.372;2023-06-14T09:28:11;10.13;;;4.47;;
18084;SDS011;9169;44.492;11.372;2023-06-14T09:30:40;7.73;;;4.00;;
18084;SDS011;9169;44.492;11.372;2023-06-14T09:33:09;7.33;;;4.03;;
18084;SDS011;9169;44.492;11.372;2023-06-14T09:35:37;7.70;;;3.97;;
18084;SDS011;9169;44.492;11.372;2023-06-14T09:38:09;9.07;;;4.17;;
18084;SDS011;9169;44.492;11.372;2023-06-14T09:40:38;7.90;;;3.77;;
18084;SDS011;9169;44.492;11.372;2023-06-14T09:43:07;7.73;;;3.73;;
18084;SDS011;9169;44.492;11.372;2023-06-14T09:45:38;6.60;;;3.73;;
18084;SDS011;9169;44.492;11.372;2023-06-14T09:48:07;7.20;;;3.27;;
18084;SDS011;9169;44.492;11.372;2023-06-14T09:50:36;7.00;;;4.43;;
18084;SDS011;9169;44.492;11.372;2023-06-14T09:53:06;6.87;;;4.10;;
18084;SDS011;9169;44.492;11.372;2023-06-14T09:55:39;6.27;;;4.20;;
18084;SDS011;9169;44.492;11.372;2023-06-14T09:58:09;7.00;;;4.10;;
18084;SDS011;9169;44.492;11.372;2023-06-14T10:00:39;5.53;;;4.30;;
18084;SDS011;9169;44.492;11.372;2023-06-14T10:03:13;22.83;;;5.03;;
18084;SDS011;9169;44.492;11.372;2023-06-14T10:05:48;10.37;;;5.47;;
18084;SDS011;9169;44.492;11.372;2023-06-14T10:08:22;8.37;;;5.60;;
18084;SDS011;9169;44.492;11.372;2023-06-14T10:10:53;10.63;;;5.60;;
18084;SDS011;9169;44.492;11.372;2023-06-14T10:13:23;9.27;;;5.67;;
18084;SDS011;9169;44.492;11.372;2023-06-14T10:15:56;10.73;;;4.80;;
18084;SDS011;9169;44.492;11.372;2023-06-14T10:18:33;8.10;;;4.43;;
18084;SDS011;9169;44.492;11.372;2023-06-14T10:21:12;8.40;;;4.60;;
18084;SDS011;9169;44.492;11.372;2023-06-14T10:23:47;7.73;;;4.37;;
18084;SDS011;9169;44.492;11.372;2023-06-14T10:26:22;7.33;;;4.60;;
18084;SDS011;9169;44.492;11.372;2023-06-14T10:28:58;9.37;;;4.50;;
18084;SDS011;9169;44.492;11.372;2023-06-14T10:31:41;8.10;;;5.00;;
18084;SDS011;9169;44.492;11.372;2023-06-14T10:34:11;7.93;;;4.03;;
18084;SDS011;9169;44.492;11.372;2023-06-14T10:36:41;7.57;;;4.33;;
18084;SDS011;9169;44.492;11.372;2023-06-14T10:39:12;7.00;;;4.10;;
18084;SDS011;9169;44.492;11.372;2023-06-14T10:41:50;8.43;;;4.33;;
18084;SDS011;9169;44.492;11.372;2023-06-14T10:44:33;6.87;;;4.30;;
18084;SDS011;9169;44.492;11.372;2023-06-14T10:50:02;12.50;;;4.17;;
18084;SDS011;9169;44.492;11.372;2023-06-14T10:52:34;7.97;;;4.10;;
18084;SDS011;9169;44.492;11.372;2023-06-14T10:55:07;12.30;;;4.13;;
18084;SDS011;9169;44.492;11.372;2023-06-14T10:57:38;6.70;;;3.90;;
18084;SDS011;9169;44.492;11.372;2023-06-14T11:00:12;5.63;;;3.60;;
18084;SDS011;9169;44.492;11.372;2023-06-14T11:05:48;7.67;;;4.17;;
18084;SDS011;9169;44.492;11.372;2023-06-14T11:11:34;6.50;;;3.80;;
18084;SDS011;9169;44.492;11.372;2023-06-14T11:14:07;6.80;;;3.77;;
18084;SDS011;9169;44.492;11.372;2023-06-14T11:16:35;8.87;;;4.77;;
18084;SDS011;9169;44.492;11.372;2023-06-14T11:19:05;10.00;;;4.50;;
18084;SDS011;9169;44.492;11.372;2023-06-14T11:21:34;7.20;;;3.70;;
18084;SDS011;9169;44.492;11.372;2023-06-14T11:24:09;8.30;;;4.07;;
18084;SDS011;9169;44.492;11.372;2023-06-14T11:26:40;8.27;;;4.10;;
18084;SDS011;9169;44.492;11.372;2023-06-14T11:29:11;5.93;;;3.73;;
18084;SDS011;9169;44.492;11.372;2023-06-14T11:31:42;6.17;;;3.70;;
18084;SDS011;9169;44.492;11.372;2023-06-14T11:34:12;7.53;;;4.33;;
18084;SDS011;9169;44.492;11.372;2023-06-14T11:36:41;11.10;;;4.00;;
18084;SDS011;9169;44.492;11.372;2023-06-14T11:39:10;8.40;;;3.90;;
18084;SDS011;9169;44.492;11.372;2023-06-14T11:41:39;5.87;;;3.80;;
18084;SDS011;9169;44.492;11.372;2023-06-14T11:44:14;7.87;;;4.50;;
18084;SDS011;9169;44.492;11.372;2023-06-14T11:46:43;8.30;;;4.20;;
18084;SDS011;9169;44.492;11.372;2023-06-14T11:49:12;6.40;;;4.13;;
18084;SDS011;9169;44.492;11.372;2023-06-14T11:51:42;8.80;;;4.70;;
18084;SDS011;9169;44.492;11.372;2023-06-14T11:54:11;8.73;;;5.40;;
18084;SDS011;9169;44.492;11.372;2023-06-14T11:56:41;9.23;;;4.60;;
18084;SDS011;9169;44.492;11.372;2023-06-14T11:59:12;8.83;;;4.33;;
18084;SDS011;9169;44.492;11.372;2023-06-14T12:01:42;10.20;;;5.00;;
18084;SDS011;9169;44.492;11.372;2023-06-14T12:04:12;11.83;;;5.93;;
18084;SDS011;9169;44.492;11.372;2023-06-14T12:06:40;14.00;;;6.77;;
18084;SDS011;9169;44.492;11.372;2023-06-14T12:09:10;14.60;;;6.33;;
18084;SDS011;9169;44.492;11.372;2023-06-14T12:11:45;13.87;;;6.23;;
18084;SDS011;9169;44.492;11.372;2023-06-14T12:14:16;13.67;;;5.93;;
18084;SDS011;9169;44.492;11.372;2023-06-14T12:16:45;15.13;;;6.43;;
18084;SDS011;9169;44.492;11.372;2023-06-14T12:19:14;15.80;;;6.00;;
18084;SDS011;9169;44.492;11.372;2023-06-14T12:21:46;18.03;;;6.63;;
18084;SDS011;9169;44.492;11.372;2023-06-14T12:24:16;15.97;;;6.20;;
18084;SDS011;9169;44.492;11.372;2023-06-14T12:26:46;17.23;;;6.50;;
18084;SDS011;9169;44.492;11.372;2023-06-14T12:29:15;23.73;;;7.20;;
18084;SDS011;9169;44.492;11.372;2023-06-14T12:31:43;23.17;;;6.77;;
18084;SDS011;9169;44.492;11.372;2023-06-14T12:34:12;19.27;;;6.20;;
18084;SDS011;9169;44.492;11.372;2023-06-14T12:36:40;22.70;;;6.50;;
18084;SDS011;9169;44.492;11.372;2023-06-14T12:39:11;21.43;;;6.60;;
18084;SDS011;9169;44.492;11.372;2023-06-14T12:41:40;22.20;;;5.70;;
18084;SDS011;9169;44.492;11.372;2023-06-14T12:44:11;18.40;;;5.70;;
18084;SDS011;9169;44.492;11.372;2023-06-14T12:46:40;17.17;;;4.67;;
18084;SDS011;9169;44.492;11.372;2023-06-14T12:49:10;17.70;;;5.00;;
18084;SDS011;9169;44.492;11.372;2023-06-14T12:51:39;18.93;;;5.50;;
18084;SDS011;9169;44.492;11.372;2023-06-14T12:54:08;16.43;;;4.70;;
18084;SDS011;9169;44.492;11.372;2023-06-14T12:56:37;16.17;;;5.00;;
18084;SDS011;9169;44.492;11.372;2023-06-14T12:59:16;16.37;;;4.67;;
18084;SDS011;9169;44.492;11.372;2023-06-14T13:01:44;16.87;;;5.30;;
18084;SDS011;9169;44.492;11.372;2023-06-14T13:04:16;17.20;;;4.77;;
18084;SDS011;9169;44.492;11.372;2023-06-14T13:06:45;14.27;;;5.03;;
18084;SDS011;9169;44.492;11.372;2023-06-14T13:09:14;14.60;;;5.30;;
18084;SDS011;9169;44.492;11.372;2023-06-14T13:11:43;16.53;;;4.93;;
18084;SDS011;9169;44.492;11.372;2023-06-14T13:14:14;14.77;;;4.90;;
18084;SDS011;9169;44.492;11.372;2023-06-14T13:16:50;12.50;;;4.30;;
18084;SDS011;9169;44.492;11.372;2023-06-14T13:19:19;13.37;;;4.43;;
18084;SDS011;9169;44.492;11.372;2023-06-14T13:21:48;12.30;;;4.30;;
18084;SDS011;9169;44.492;11.372;2023-06-14T13:24:17;14.63;;;5.13;;
18084;SDS011;9169;44.492;11.372;2023-06-14T13:26:45;11.63;;;4.97;;
18084;SDS011;9169;44.492;11.372;2023-06-14T13:29:15;12.67;;;4.40;;
18084;SDS011;9169;44.492;11.372;2023-06-14T13:31:44;13.00;;;4.67;;
18084;SDS011;9169;44.492;11.372;2023-06-14T13:34:13;10.67;;;4.57;;
18084;SDS011;9169;44.492;11.372;2023-06-14T13:36:41;9.53;;;4.40;;
18084;SDS011;9169;44.492;11.372;2023-06-14T13:39:10;8.63;;;4.00;;
18084;SDS011;9169;44.492;11.372;2023-06-14T13:41:39;12.03;;;5.17;;
18084;SDS011;9169;44.492;11.372;2023-06-14T13:44:07;9.17;;;4.37;;
18084;SDS011;9169;44.492;11.372;2023-06-14T13:46:40;8.60;;;3.70;;
18084;SDS011;9169;44.492;11.372;2023-06-14T13:49:09;7.97;;;4.10;;
18084;SDS011;9169;44.492;11.372;2023-06-14T13:51:41;6.80;;;3.93;;
18084;SDS011;9169;44.492;11.372;2023-06-14T13:54:12;7.30;;;3.83;;
18084;SDS011;9169;44.492;11.372;2023-06-14T13:56:42;8.03;;;4.33;;
18084;SDS011;9169;44.492;11.372;2023-06-14T13:59:10;6.33;;;3.90;;
18084;SDS011;9169;44.492;11.372;2023-06-14T14:01:40;4.70;;;3.87;;
18084;SDS011;9169;44.492;11.372;2023-06-14T14:04:09;4.90;;;3.73;;
18084;SDS011;9169;44.492;11.372;2023-06-14T14:06:38;5.57;;;3.40;;
18084;SDS011;9169;44.492;11.372;2023-06-14T14:09:07;6.10;;;3.97;;
18084;SDS011;9169;44.492;11.372;2023-06-14T14:11:36;5.87;;;3.60;;
18084;SDS011;9169;44.492;11.372;2023-06-14T14:14:06;8.20;;;3.40;;
18084;SDS011;9169;44.492;11.372;2023-06-14T14:16:35;7.70;;;3.70;;
18084;SDS011;9169;44.492;11.372;2023-06-14T14:19:06;7.13;;;4.07;;
18084;SDS011;9169;44.492;11.372;2023-06-14T14:21:35;5.33;;;3.70;;
18084;SDS011;9169;44.492;11.372;2023-06-14T14:24:04;5.47;;;3.87;;
18084;SDS011;9169;44.492;11.372;2023-06-14T14:26:33;7.33;;;4.67;;
18084;SDS011;9169;44.492;11.372;2023-06-14T14:29:02;10.87;;;3.87;;
18084;SDS011;9169;44.492;11.372;2023-06-14T14:31:30;5.37;;;3.60;;
18084;SDS011;9169;44.492;11.372;2023-06-14T14:33:59;4.97;;;3.73;;
18084;SDS011;9169;44.492;11.372;2023-06-14T14:36:29;7.87;;;3.57;;
18084;SDS011;9169;44.492;11.372;2023-06-14T14:38:57;7.70;;;3.27;;
18084;SDS011;9169;44.492;11.372;2023-06-14T14:41:27;9.63;;;4.47;;
18084;SDS011;9169;44.492;11.372;2023-06-14T14:43:56;6.97;;;4.10;;
18084;SDS011;9169;44.492;11.372;2023-06-14T14:46:25;8.23;;;3.80;;
18084;SDS011;9169;44.492;11.372;2023-06-14T14:48:55;5.93;;;3.60;;
18084;SDS011;9169;44.492;11.372;2023-06-14T14:51:24;12.40;;;3.70;;
18084;SDS011;9169;44.492;11.372;2023-06-14T14:53:53;6.93;;;4.20;;
18084;SDS011;9169;44.492;11.372;2023-06-14T14:56:22;7.10;;;3.67;;
18084;SDS011;9169;44.492;11.372;2023-06-14T14:58:52;6.13;;;3.83;;
18084;SDS011;9169;44.492;11.372;2023-06-14T15:01:21;10.83;;;4.20;;
18084;SDS011;9169;44.492;11.372;2023-06-14T15:03:49;6.63;;;4.13;;
18084;SDS011;9169;44.492;11.372;2023-06-14T15:06:23;7.57;;;3.70;;